Search for airport 
image banner adimage banner adimage banner ad
image banner ad

0PS9 - Aria Health Bucks County Campus

Located in Fairless Hills, United States

ICAO - 0PS9, IATA -

Data provided by Airmate  

General information

Coordinates: N40°10'58" W74°52'5"
Elevation is 141 feet MSL.
Magnetic variation is -12° East
View others Airports in Pennsylvania

Operational data

Special qualification required
Current time UTC:
Current local time:
Weather at : KTTN - Trenton Mercer ( 11 km )
METAR: KTTN 182353Z 23004KT 10SM CLR 24/06 A3023 RMK AO2 SLP230 T02390061 10261 20239 55005
TAF: KTTN 182320Z 1900/1924 VRB04KT P6SM SKC
View NOTAMs / SUP AIP / TFR affecting this airport [VIEW]
Communications frequencies: [VIEW]

Runways:

Airport contact information

Address: Fairless Hills United States

Satellite view of 0PS9